Time;durP1;ratioP1;P1;durP2;ratioP2;P2;SDS_P1;SDS_P2;PMS_P1;PMS_P2;Temp;Humidity;BMP_temperature;BMP_pressure;BME280_temperature;BME280_humidity;BME280_pressure;Samples;Min_cycle;Max_cycle;Signal;HPM_P1;HPM_P2
2021/05/07 00:00:34;;;;;;;11.00;6.60;;;;;;;;;;5005548;28;20224;-84
2021/05/07 00:03:01;;;;;;;12.07;6.23;;;;;;;;;;5007412;28;20211;-85
2021/05/07 00:05:28;;;;;;;11.67;6.67;;;;;;;;;;5002382;28;20232;-85
2021/05/07 00:07:55;;;;;;;10.53;6.83;;;;;;;;;;5001888;28;20236;-84
2021/05/07 00:10:22;;;;;;;10.40;6.20;;;;;;;;;;5007961;28;20281;-85
2021/05/07 00:12:49;;;;;;;11.03;6.93;;;;;;;;;;5007191;28;20201;-84
2021/05/07 00:15:16;;;;;;;11.93;6.77;;;;;;;;;;5009715;28;20231;-84
2021/05/07 00:17:44;;;;;;;11.83;6.73;;;;;;;;;;5027016;28;20196;-84
2021/05/07 00:20:11;;;;;;;11.43;6.93;;;;;;;;;;5028881;28;20312;-84
2021/05/07 00:22:40;;;;;;;10.60;7.23;;;;;;;;;;5017371;28;20223;-84
2021/05/07 00:25:08;;;;;;;12.63;7.30;;;;;;;;;;5009398;28;20233;-85
2021/05/07 00:27:34;;;;;;;13.03;7.87;;;;;;;;;;5007581;28;20310;-85
2021/05/07 00:30:01;;;;;;;11.40;7.33;;;;;;;;;;5009002;28;20231;-84
2021/05/07 00:32:28;;;;;;;12.97;8.00;;;;;;;;;;5009898;28;20251;-85
2021/05/07 00:34:56;;;;;;;12.93;7.70;;;;;;;;;;5008683;28;20314;-85
2021/05/07 00:37:22;;;;;;;15.27;8.77;;;;;;;;;;5011511;28;20240;-84
2021/05/07 00:39:49;;;;;;;17.33;10.33;;;;;;;;;;5010914;28;20231;-84
2021/05/07 00:42:17;;;;;;;22.37;13.37;;;;;;;;;;5009224;28;20239;-84
2021/05/07 00:44:44;;;;;;;28.60;15.00;;;;;;;;;;5003056;28;20673;-83
2021/05/07 00:47:11;;;;;;;28.73;15.57;;;;;;;;;;5007308;28;20518;-82
2021/05/07 00:49:38;;;;;;;24.50;14.70;;;;;;;;;;5003676;28;20656;-83
2021/05/07 00:52:07;;;;;;;23.20;13.20;;;;;;;;;;5006273;28;20233;-83
2021/05/07 00:54:34;;;;;;;23.90;11.90;;;;;;;;;;5008996;28;20224;-83
2021/05/07 00:57:01;;;;;;;23.40;10.93;;;;;;;;;;5009037;28;20223;-83
2021/05/07 00:59:28;;;;;;;21.47;10.67;;;;;;;;;;5009338;28;20209;-84
2021/05/07 01:01:55;;;;;;;16.03;10.30;;;;;;;;;;5009280;28;20236;-83
2021/05/07 01:04:22;;;;;;;15.27;9.23;;;;;;;;;;5007961;28;20749;-83
2021/05/07 01:09:53;;;;;;;16.57;9.53;;;;;;;;;;5010446;28;20220;-84
2021/05/07 01:12:20;;;;;;;16.73;9.90;;;;;;;;;;5008793;28;20213;-84
2021/05/07 01:14:59;;;;;;;19.37;10.77;;;;;;;;;;5008801;28;20282;-83
2021/05/07 01:17:26;;;;;;;16.87;9.80;;;;;;;;;;5007425;28;20220;-83
2021/05/07 01:19:52;;;;;;;18.60;8.50;;;;;;;;;;5009097;28;20200;-83
2021/05/07 01:22:20;;;;;;;12.70;7.43;;;;;;;;;;5010345;28;20204;-83
2021/05/07 01:24:47;;;;;;;12.13;7.33;;;;;;;;;;5005844;28;20243;-83
2021/05/07 01:27:13;;;;;;;11.47;7.30;;;;;;;;;;5006059;28;20212;-83
2021/05/07 01:29:40;;;;;;;12.70;7.17;;;;;;;;;;5009607;28;20216;-83
2021/05/07 01:32:07;;;;;;;10.70;7.00;;;;;;;;;;5008754;28;20323;-84
2021/05/07 01:34:34;;;;;;;11.40;7.17;;;;;;;;;;5009261;28;20296;-84
2021/05/07 01:37:00;;;;;;;12.03;7.00;;;;;;;;;;5010293;28;20200;-83
2021/05/07 01:39:28;;;;;;;11.93;7.47;;;;;;;;;;5010964;28;20236;-84
2021/05/07 01:41:56;;;;;;;11.63;7.23;;;;;;;;;;5009259;28;20307;-84
2021/05/07 01:44:23;;;;;;;14.87;8.03;;;;;;;;;;5009096;28;20288;-84
2021/05/07 01:46:49;;;;;;;10.33;7.20;;;;;;;;;;5009150;28;20304;-84
2021/05/07 01:49:20;;;;;;;12.87;7.90;;;;;;;;;;5008801;28;20207;-84
2021/05/07 01:51:47;;;;;;;11.47;7.33;;;;;;;;;;5009810;22;20229;-86
2021/05/07 01:54:13;;;;;;;12.80;7.20;;;;;;;;;;4989908;28;20221;-86
2021/05/07 01:56:41;;;;;;;11.10;7.27;;;;;;;;;;4986614;28;20209;-82
2021/05/07 01:59:08;;;;;;;11.43;7.77;;;;;;;;;;4987711;28;20217;-82
2021/05/07 02:01:35;;;;;;;12.07;7.77;;;;;;;;;;4998451;28;20240;-84
2021/05/07 02:04:01;;;;;;;12.70;8.10;;;;;;;;;;5001357;28;20925;-82
2021/05/07 02:06:28;;;;;;;12.63;8.10;;;;;;;;;;5007656;28;20201;-84
2021/05/07 02:08:55;;;;;;;13.87;8.80;;;;;;;;;;5003171;28;20660;-82
2021/05/07 02:11:21;;;;;;;14.67;8.07;;;;;;;;;;5005785;28;20298;-82
2021/05/07 02:13:49;;;;;;;13.70;8.13;;;;;;;;;;4987538;28;20748;-86
2021/05/07 02:16:16;;;;;;;14.93;8.37;;;;;;;;;;4989630;28;20302;-85
2021/05/07 02:18:45;;;;;;;16.80;8.90;;;;;;;;;;4986700;28;20237;-86
2021/05/07 02:21:12;;;;;;;15.80;8.97;;;;;;;;;;4989012;28;20229;-85
2021/05/07 02:23:41;;;;;;;15.70;9.13;;;;;;;;;;4987810;28;20219;-85
2021/05/07 02:26:08;;;;;;;20.63;9.17;;;;;;;;;;4987198;28;20649;-85
2021/05/07 02:28:35;;;;;;;16.70;9.27;;;;;;;;;;4989090;28;20210;-86
2021/05/07 02:31:02;;;;;;;17.87;9.40;;;;;;;;;;4989154;28;20248;-83
2021/05/07 02:33:29;;;;;;;16.70;10.03;;;;;;;;;;4988387;28;20241;-84
2021/05/07 02:35:56;;;;;;;16.97;10.23;;;;;;;;;;4987233;28;20220;-85
2021/05/07 02:38:22;;;;;;;18.60;10.40;;;;;;;;;;4986159;28;20711;-81
2021/05/07 02:40:49;;;;;;;16.33;9.93;;;;;;;;;;4987776;28;20228;-86
2021/05/07 02:43:16;;;;;;;18.67;10.60;;;;;;;;;;4987289;28;20244;-82
2021/05/07 02:45:42;;;;;;;24.77;11.33;;;;;;;;;;4988081;28;20972;-88
2021/05/07 02:48:11;;;;;;;19.20;10.40;;;;;;;;;;4986507;28;20308;-84
2021/05/07 02:50:38;;;;;;;19.43;11.17;;;;;;;;;;4986715;28;20228;-83
2021/05/07 02:53:04;;;;;;;24.17;12.53;;;;;;;;;;4986413;28;20296;-85
2021/05/07 02:55:31;;;;;;;18.40;10.97;;;;;;;;;;4985876;28;20217;-85
2021/05/07 02:57:58;;;;;;;24.57;13.00;;;;;;;;;;4987074;28;20233;-88
2021/05/07 03:00:25;;;;;;;23.37;12.80;;;;;;;;;;4986573;28;20232;-84
2021/05/07 03:02:51;;;;;;;22.43;12.70;;;;;;;;;;4982846;28;20208;-84
2021/05/07 03:05:19;;;;;;;28.50;13.83;;;;;;;;;;4984795;28;20315;-87
2021/05/07 03:07:46;;;;;;;20.80;11.53;;;;;;;;;;4984055;28;20197;-86
2021/05/07 03:10:12;;;;;;;22.53;12.73;;;;;;;;;;4985665;28;20295;-88
2021/05/07 03:12:39;;;;;;;23.80;12.10;;;;;;;;;;4986322;28;20197;-88
2021/05/07 03:15:06;;;;;;;28.57;13.63;;;;;;;;;;4985267;28;20228;-84
2021/05/07 03:17:33;;;;;;;24.10;12.63;;;;;;;;;;4985707;28;20640;-85
2021/05/07 03:20:00;;;;;;;24.90;13.63;;;;;;;;;;4986521;28;20216;-86
2021/05/07 03:22:27;;;;;;;24.17;13.47;;;;;;;;;;4985564;28;20232;-86
2021/05/07 03:24:54;;;;;;;26.03;14.47;;;;;;;;;;4985594;28;20236;-87
2021/05/07 03:27:21;;;;;;;26.77;14.73;;;;;;;;;;4984024;28;20208;-89
2021/05/07 03:29:47;;;;;;;27.60;14.50;;;;;;;;;;4986213;28;20300;-86
2021/05/07 03:32:14;;;;;;;25.03;13.73;;;;;;;;;;4986074;28;20315;-87
2021/05/07 03:34:41;;;;;;;28.90;14.13;;;;;;;;;;4981284;28;20257;-87
2021/05/07 03:37:08;;;;;;;29.83;15.43;;;;;;;;;;4985466;28;20296;-85
2021/05/07 03:39:35;;;;;;;28.53;15.07;;;;;;;;;;4984721;28;20211;-86
2021/05/07 03:42:02;;;;;;;30.00;15.00;;;;;;;;;;4984089;28;20363;-87
2021/05/07 03:44:29;;;;;;;28.50;14.77;;;;;;;;;;4987154;28;20286;-87
2021/05/07 03:46:55;;;;;;;34.13;16.27;;;;;;;;;;4982130;28;20215;-83
2021/05/07 03:49:22;;;;;;;28.60;16.20;;;;;;;;;;4985342;28;20229;-85
2021/05/07 03:51:49;;;;;;;31.10;16.03;;;;;;;;;;4983500;28;20259;-87
2021/05/07 03:54:15;;;;;;;33.40;16.70;;;;;;;;;;4983316;28;20662;-87
2021/05/07 03:56:43;;;;;;;30.53;16.60;;;;;;;;;;4981948;28;20532;-87
2021/05/07 03:59:10;;;;;;;29.83;16.30;;;;;;;;;;4986544;28;20309;-87
2021/05/07 04:01:36;;;;;;;35.17;16.90;;;;;;;;;;4980958;28;20225;-85
2021/05/07 04:04:06;;;;;;;36.00;16.33;;;;;;;;;;4981103;28;20287;-86
2021/05/07 04:06:33;;;;;;;33.43;16.33;;;;;;;;;;4980064;28;20656;-87
2021/05/07 04:09:04;;;;;;;30.77;16.40;;;;;;;;;;4979808;28;20205;-88
2021/05/07 04:11:33;;;;;;;33.77;16.63;;;;;;;;;;4980512;28;20287;-86
2021/05/07 04:14:01;;;;;;;44.17;17.53;;;;;;;;;;4981861;28;20216;-86
2021/05/07 04:16:28;;;;;;;36.43;19.13;;;;;;;;;;4985229;28;20640;-87
2021/05/07 04:18:55;;;;;;;38.67;18.10;;;;;;;;;;4981203;28;20233;-86
2021/05/07 04:21:23;;;;;;;37.70;18.63;;;;;;;;;;4981482;28;20646;-88
2021/05/07 04:23:50;;;;;;;36.83;18.10;;;;;;;;;;4980716;28;20233;-87
2021/05/07 04:26:16;;;;;;;39.10;20.30;;;;;;;;;;4984328;28;20278;-87
2021/05/07 04:28:43;;;;;;;41.07;19.30;;;;;;;;;;4983744;28;20287;-87
2021/05/07 04:31:11;;;;;;;41.60;20.80;;;;;;;;;;4983232;28;20605;-86
2021/05/07 04:33:37;;;;;;;40.77;19.90;;;;;;;;;;4981068;28;20300;-86
2021/05/07 04:36:04;;;;;;;42.10;20.27;;;;;;;;;;4984960;28;20669;-87
2021/05/07 04:38:31;;;;;;;42.37;20.23;;;;;;;;;;4982215;28;21200;-87
2021/05/07 04:40:58;;;;;;;39.00;19.80;;;;;;;;;;4981441;28;20221;-85
2021/05/07 04:43:25;;;;;;;38.27;20.20;;;;;;;;;;4982861;28;20678;-87
2021/05/07 04:45:52;;;;;;;36.30;19.87;;;;;;;;;;4981094;28;20300;-86
2021/05/07 04:48:19;;;;;;;38.47;20.00;;;;;;;;;;4982179;28;20213;-87
2021/05/07 04:50:46;;;;;;;39.70;19.53;;;;;;;;;;4982103;28;20263;-84
2021/05/07 04:53:13;;;;;;;39.03;19.73;;;;;;;;;;4985814;28;20265;-85
2021/05/07 04:55:39;;;;;;;40.53;19.50;;;;;;;;;;4983036;28;20341;-85
2021/05/07 04:58:06;;;;;;;43.43;20.47;;;;;;;;;;4985081;28;20813;-85
2021/05/07 05:00:33;;;;;;;41.07;20.50;;;;;;;;;;4985138;28;20257;-85
2021/05/07 05:02:59;;;;;;;42.20;21.13;;;;;;;;;;4982363;28;20206;-86
2021/05/07 05:05:27;;;;;;;44.40;21.90;;;;;;;;;;4982526;28;20546;-87
2021/05/07 05:07:56;;;;;;;39.50;21.03;;;;;;;;;;4981103;28;20209;-86
2021/05/07 05:10:23;;;;;;;39.20;21.00;;;;;;;;;;4983315;28;20221;-84
2021/05/07 05:12:49;;;;;;;40.23;20.03;;;;;;;;;;4983038;28;20202;-82
2021/05/07 05:15:17;;;;;;;39.00;19.50;;;;;;;;;;4982667;28;20372;-85
2021/05/07 05:17:43;;;;;;;39.03;21.07;;;;;;;;;;4983898;28;20247;-87
2021/05/07 05:20:11;;;;;;;40.50;20.67;;;;;;;;;;4984551;28;20752;-87
2021/05/07 05:22:39;;;;;;;40.70;20.90;;;;;;;;;;4985864;28;20224;-86
2021/05/07 05:25:06;;;;;;;37.00;20.33;;;;;;;;;;4985081;28;20213;-87
2021/05/07 05:27:33;;;;;;;40.90;19.77;;;;;;;;;;4983848;28;20312;-87
2021/05/07 05:29:59;;;;;;;33.30;18.33;;;8.80;99.90;;;;;;4985185;28;20292;-86
2021/05/07 05:32:26;;;;;;;30.73;17.70;;;9.30;99.90;;;;;;4988670;28;20244;-87
2021/05/07 05:34:52;;;;;;;31.77;18.30;;;9.90;99.90;;;;;;4984737;28;20332;-87
2021/05/07 05:37:19;;;;;;;26.30;16.50;;;;;;;;;;4984190;28;20283;-87
2021/05/07 05:39:46;;;;;;;29.53;18.07;;;;;;;;;;4983913;28;20205;-85
2021/05/07 05:42:13;;;;;;;29.13;17.53;;;;;;;;;;4986077;28;20315;-87
2021/05/07 05:44:40;;;;;;;34.37;21.57;;;;;;;;;;4988346;28;20236;-86
2021/05/07 05:47:07;;;;;;;32.07;18.13;;;;;;;;;;4986348;28;20219;-86
2021/05/07 05:49:33;;;;;;;26.13;16.23;;;;;;;;;;4986947;28;20252;-87
2021/05/07 05:52:00;;;;;;;31.70;17.33;;;;;;;;;;4982558;28;20796;-87
2021/05/07 05:54:27;;;;;;;29.87;17.57;;;;;;;;;;4984254;28;20228;-88
2021/05/07 05:56:54;;;;;;;29.77;17.10;;;;;;;;;;4986589;28;20284;-87
2021/05/07 05:59:21;;;;;;;28.63;16.33;;;;;;;;;;4985444;28;20217;-87
2021/05/07 06:01:48;;;;;;;31.10;17.67;;;;;;;;;;4987202;28;20303;-86
2021/05/07 06:04:15;;;;;;;27.43;14.33;;;;;;;;;;4986230;28;20216;-87
2021/05/07 06:06:41;;;;;;;31.77;16.50;;;;;;;;;;4987520;28;20312;-87
2021/05/07 06:09:08;;;;;;;28.73;15.63;;;;;;;;;;4986760;28;20205;-87
2021/05/07 06:11:35;;;;;;;26.97;15.23;;;;;;;;;;4985941;28;20228;-85
2021/05/07 06:14:03;;;;;;;30.53;16.23;;;;;;;;;;4983987;28;20228;-88
2021/05/07 06:16:29;;;;;;;26.20;14.63;;;;;;;;;;4985846;28;20233;-89
2021/05/07 06:18:56;;;;;;;26.33;15.07;;;10.20;99.90;;;;;;4986479;28;20232;-85
2021/05/07 06:21:22;;;;;;;25.67;14.27;;;9.60;99.90;;;;;;4987089;28;20606;-86
2021/05/07 06:23:49;;;;;;;23.30;14.67;;;;;;;;;;4984123;28;20220;-87
2021/05/07 06:26:16;;;;;;;27.50;15.50;;;;;;;;;;4983612;28;20240;-84
2021/05/07 06:28:42;;;;;;;23.97;14.30;;;;;;;;;;4984338;28;20208;-86
2021/05/07 06:31:10;;;;;;;23.30;13.27;;;;;;;;;;4985901;28;21061;-86
2021/05/07 06:33:36;;;;;;;20.63;12.57;;;;;;;;;;4985402;28;20236;-85
2021/05/07 06:36:03;;;;;;;21.57;11.73;;;;;;;;;;4986368;28;20283;-85
2021/05/07 06:38:30;;;;;;;22.80;11.43;;;;;;;;;;4987543;28;20476;-86
2021/05/07 06:40:57;;;;;;;20.43;12.50;;;;;;;;;;4983949;28;20247;-86
2021/05/07 06:43:23;;;;;;;18.77;11.10;;;;;;;;;;4983351;28;20204;-87
2021/05/07 06:45:50;;;;;;;20.43;11.50;;;;;;;;;;4985392;28;20288;-86
2021/05/07 06:48:18;;;;;;;20.37;12.10;;;;;;;;;;4983458;28;20561;-87
2021/05/07 06:50:44;;;;;;;18.37;10.87;;;10.10;99.90;;;;;;4986594;28;20287;-86
2021/05/07 06:53:11;;;;;;;15.87;9.63;;;12.00;99.90;;;;;;4984122;28;20247;-86
2021/05/07 06:55:37;;;;;;;16.77;10.27;;;13.40;99.90;;;;;;4987295;28;20271;-88
2021/05/07 06:58:03;;;;;;;16.93;10.07;;;15.20;99.90;;;;;;4985011;28;20209;-87
2021/05/07 07:00:32;;;;;;;15.33;9.27;;;16.10;99.90;;;;;;4983546;28;20222;-88
2021/05/07 07:02:58;;;;;;;14.33;9.33;;;16.80;99.90;;;;;;4985205;28;20212;-87
2021/05/07 07:05:25;;;;;;;15.60;9.73;;;15.00;99.90;;;;;;4981360;28;20284;-86
2021/05/07 07:07:54;;;;;;;20.57;10.30;;;;;;;;;;4986408;28;20596;-86
2021/05/07 07:10:21;;;;;;;16.37;10.23;;;;;;;;;;4985524;28;20225;-87
2021/05/07 07:12:47;;;;;;;17.07;10.10;;;;;;;;;;4985700;28;20228;-87
2021/05/07 07:15:14;;;;;;;15.70;10.23;;;;;;;;;;4983031;28;20247;-84
2021/05/07 07:17:41;;;;;;;19.23;10.80;;;;;;;;;;4984124;28;20219;-87
2021/05/07 07:20:09;;;;;;;18.50;10.53;;;;;;;;;;4984065;28;20364;-85
2021/05/07 07:22:36;;;;;;;19.40;10.50;;;;;;;;;;4985943;28;20239;-87
2021/05/07 07:25:03;;;;;;;14.73;9.53;;;13.50;99.90;;;;;;4983372;28;20264;-88
2021/05/07 07:27:30;;;;;;;16.50;9.93;;;13.70;99.90;;;;;;4986563;28;20712;-89
2021/05/07 07:29:56;;;;;;;17.17;10.50;;;;;;;;;;4984309;28;20240;-88
2021/05/07 07:32:23;;;;;;;14.20;10.10;;;;;;;;;;4983399;28;21639;-87
2021/05/07 07:34:52;;;;;;;18.80;11.20;;;;;;;;;;4984428;28;20197;-88
2021/05/07 07:37:19;;;;;;;17.93;10.73;;;;;;;;;;4983060;28;20209;-87
2021/05/07 07:39:47;;;;;;;19.30;11.70;;;;;;;;;;4984151;28;20716;-87
2021/05/07 07:42:14;;;;;;;20.40;11.53;;;;;;;;;;4984054;28;20320;-88
2021/05/07 07:44:40;;;;;;;21.17;11.17;;;;;;;;;;4985705;28;20226;-85
2021/05/07 07:47:07;;;;;;;22.23;12.03;;;;;;;;;;4980736;28;20218;-86
2021/05/07 07:49:34;;;;;;;21.03;11.57;;;;;;;;;;4984635;28;20292;-88
2021/05/07 07:52:00;;;;;;;16.00;10.20;;;;;;;;;;5015454;22;20298;-82
2021/05/07 07:54:28;;;;;;;17.77;9.97;;;;;;;;;;5005409;28;20204;-82
2021/05/07 07:56:55;;;;;;;17.30;8.90;;;;;;;;;;5007302;28;20196;-82
2021/05/07 07:59:23;;;;;;;13.93;8.80;;;;;;;;;;5005055;28;20204;-82
2021/05/07 08:01:50;;;;;;;15.17;8.87;;;;;;;;;;4995793;28;20316;-83
2021/05/07 08:04:17;;;;;;;14.40;8.00;;;;;;;;;;4991557;28;20299;-82
2021/05/07 08:06:44;;;;;;;13.53;7.30;;;;;;;;;;4996468;28;20211;-82
2021/05/07 08:09:11;;;;;;;15.67;8.40;;;;;;;;;;4991855;28;20700;-83
2021/05/07 08:11:38;;;;;;;12.53;7.37;;;;;;;;;;4991596;28;20257;-82
2021/05/07 08:14:06;;;;;;;14.20;7.17;;;;;;;;;;4997037;28;20699;-83
2021/05/07 08:16:33;;;;;;;12.77;7.30;;;;;;;;;;4993374;28;20232;-82
2021/05/07 08:18:59;;;;;;;12.70;7.60;;;;;;;;;;4996731;28;20194;-82
2021/05/07 08:21:28;;;;;;;15.30;7.73;;;;;;;;;;4992028;28;20229;-83
2021/05/07 08:23:55;;;;;;;14.57;7.07;;;;;;;;;;4991956;28;20332;-82
2021/05/07 08:26:22;;;;;;;12.07;7.27;;;;;;;;;;4992543;28;20472;-82
2021/05/07 08:28:49;;;;;;;13.27;7.67;;;;;;;;;;4992849;28;20618;-82
2021/05/07 08:31:16;;;;;;;14.93;9.00;;;;;;;;;;4995664;28;20221;-82
2021/05/07 08:33:43;;;;;;;13.50;8.43;;;;;;;;;;4996917;28;20279;-82
2021/05/07 08:36:10;;;;;;;17.57;8.27;;;;;;;;;;4991972;28;20235;-83
2021/05/07 08:38:37;;;;;;;15.53;8.10;;;;;;;;;;4990036;28;20216;-82
2021/05/07 08:41:04;;;;;;;17.87;8.53;;;;;;;;;;4994590;28;20239;-82
2021/05/07 08:43:31;;;;;;;16.43;9.37;;;14.00;99.90;;;;;;4994943;28;20209;-82
2021/05/07 08:46:02;;;;;;;18.93;9.60;;;7.20;99.90;;;;;;4993752;28;20328;-85
2021/05/07 08:48:30;;;;;;;19.80;10.07;;;6.70;99.90;;;;;;4995826;28;20204;-82
2021/05/07 08:50:56;;;;;;;18.63;10.17;;;6.30;99.90;;;;;;4993847;28;20306;-82
2021/05/07 08:53:23;;;;;;;18.73;9.80;;;6.60;99.90;;;;;;4995112;28;20209;-82
2021/05/07 08:55:50;;;;;;;19.87;9.87;;;6.80;99.90;;;;;;4996137;28;20280;-82
2021/05/07 08:58:17;;;;;;;21.57;10.90;;;7.00;99.90;;;;;;4996397;28;20235;-82
2021/05/07 09:00:44;;;;;;;19.80;10.93;;;6.90;99.90;;;;;;4996929;28;20958;-83
2021/05/07 09:03:13;;;;;;;16.60;9.77;;;6.70;99.90;;;;;;5002564;28;20262;-83
2021/05/07 09:05:41;;;;;;;15.77;9.30;;;6.40;99.90;;;;;;5022886;28;20228;-82
2021/05/07 09:08:08;;;;;;;17.40;9.27;;;6.20;99.90;;;;;;5016745;28;20189;-83
2021/05/07 09:10:36;;;;;;;16.93;10.00;;;6.20;99.90;;;;;;5017857;28;21653;-83
2021/05/07 09:13:03;;;;;;;17.27;8.87;;;6.20;99.90;;;;;;4995085;28;20197;-81
2021/05/07 09:15:41;;;;;;;14.67;8.10;;;6.00;99.90;;;;;;4998619;28;20205;-83
2021/05/07 09:18:08;;;;;;;12.60;7.47;;;6.00;99.90;;;;;;4998922;28;20212;-83
2021/05/07 09:20:40;;;;;;;14.07;7.67;;;5.90;99.90;;;;;;4995223;28;20597;-82
2021/05/07 09:23:11;;;;;;;13.37;8.00;;;5.90;99.90;;;;;;4996771;28;20233;-83
2021/05/07 09:25:38;;;;;;;18.20;9.23;;;5.80;99.90;;;;;;4997895;28;20223;-82
2021/05/07 09:28:09;;;;;;;18.00;9.53;;;5.80;99.90;;;;;;4996201;28;20201;-82
2021/05/07 09:30:38;;;;;;;20.23;10.97;;;5.80;99.90;;;;;;4999902;28;20315;-82
2021/05/07 09:33:08;;;;;;;24.37;11.07;;;6.00;99.90;;;;;;4996343;28;20792;-83
2021/05/07 09:35:35;;;;;;;18.53;10.37;;;6.10;99.90;;;;;;4996661;28;20209;-83
2021/05/07 09:38:04;;;;;;;19.00;10.23;;;6.90;99.90;;;;;;4991822;28;20693;-83
2021/05/07 09:40:31;;;;;;;15.90;9.63;;;7.80;99.90;;;;;;4995188;28;20229;-83
2021/05/07 09:43:07;;;;;;;14.37;8.50;;;8.10;99.90;;;;;;4991658;28;20291;-82
2021/05/07 09:45:35;;;;;;;12.77;8.23;;;8.60;99.90;;;;;;4989971;28;20233;-83
2021/05/07 09:48:02;;;;;;;14.00;8.07;;;9.30;99.90;;;;;;4988098;28;20558;-82
2021/05/07 09:50:37;;;;;;;15.20;8.63;;;9.30;99.90;;;;;;4993112;28;20309;-82
2021/05/07 09:53:17;;;;;;;12.20;7.33;;;9.50;99.90;;;;;;4993234;28;20288;-82
2021/05/07 09:55:44;;;;;;;15.03;8.37;;;9.10;99.90;;;;;;4992299;28;20205;-82
2021/05/07 09:58:11;;;;;;;13.07;7.47;;;8.80;99.90;;;;;;4994176;28;20205;-83
2021/05/07 10:00:38;;;;;;;11.47;7.77;;;8.40;99.90;;;;;;4991918;28;20902;-82
2021/05/07 10:03:05;;;;;;;14.13;7.47;;;7.90;99.90;;;;;;4993160;28;20308;-82
2021/05/07 10:05:32;;;;;;;12.37;8.00;;;7.70;99.90;;;;;;4992944;28;20233;-82
2021/05/07 10:07:59;;;;;;;11.97;7.40;;;7.50;99.90;;;;;;4991609;28;20201;-82
2021/05/07 10:10:31;;;;;;;12.60;7.53;;;7.50;99.90;;;;;;4989621;28;20217;-82
2021/05/07 10:12:59;;;;;;;13.03;7.97;;;7.50;99.90;;;;;;4990014;28;20688;-82
2021/05/07 10:15:32;;;;;;;16.33;8.77;;;;;;;;;;4990102;28;20206;-83
2021/05/07 10:17:59;;;;;;;13.87;8.10;;;;;;;;;;4993525;28;20216;-82
2021/05/07 10:20:30;;;;;;;14.17;7.50;;;;;;;;;;4991253;28;20208;-83
2021/05/07 10:22:57;;;;;;;11.03;7.00;;;;;;;;;;4996579;28;20202;-83
2021/05/07 10:25:24;;;;;;;12.83;7.93;;;;;;;;;;4992215;28;20592;-82
2021/05/07 10:27:53;;;;;;;11.27;7.40;;;;;;;;;;4991228;28;20270;-82
2021/05/07 10:30:26;;;;;;;10.77;7.10;;;;;;;;;;4991985;28;20201;-82
2021/05/07 10:32:57;;;;;;;11.70;7.23;;;;;;;;;;4990850;28;20224;-82
2021/05/07 10:35:30;;;;;;;12.07;6.87;;;;;;;;;;4989275;28;20197;-82
2021/05/07 10:38:13;;;;;;;10.63;6.23;;;;;;;;;;4987389;28;20200;-82
2021/05/07 10:40:41;;;;;;;11.83;5.80;;;;;;;;;;4989993;28;20229;-83
2021/05/07 10:43:09;;;;;;;9.23;5.50;;;;;;;;;;4991528;28;20271;-83
2021/05/07 10:45:43;;;;;;;7.57;4.70;;;;;;;;;;4995471;28;20217;-80
2021/05/07 10:48:17;;;;;;;8.83;5.00;;;;;;;;;;5011571;28;20300;-83
2021/05/07 10:50:44;;;;;;;7.53;4.37;;;;;;;;;;5011087;28;20241;-83
2021/05/07 10:53:11;;;;;;;7.33;4.60;;;;;;;;;;5011439;28;20567;-83
2021/05/07 10:55:38;;;;;;;8.13;4.20;;;;;;;;;;4992098;28;20237;-83
2021/05/07 10:58:05;;;;;;;7.37;4.20;;;;;;;;;;4991142;28;20214;-83
2021/05/07 11:00:39;;;;;;;6.03;2.90;;;;;;;;;;4989252;28;20208;-83
2021/05/07 11:03:06;;;;;;;4.53;3.30;;;;;;;;;;4992529;28;20219;-83
2021/05/07 11:05:36;;;;;;;6.00;3.10;;;;;;;;;;4997282;28;20640;-83
2021/05/07 11:08:03;;;;;;;4.70;3.10;;;;;;;;;;4993445;28;20228;-83
2021/05/07 11:10:30;;;;;;;5.13;3.40;;;;;;;;;;5001886;28;20219;-83
2021/05/07 11:12:57;;;;;;;7.67;2.70;;;;;;;;;;4991835;28;20210;-83
2021/05/07 11:15:24;;;;;;;6.57;2.80;;;;;;;;;;4997337;28;20647;-82
2021/05/07 11:18:01;;;;;;;2.80;2.03;;;;;;;;;;4997335;28;20208;-84
2021/05/07 11:23:32;;;;;;;2.73;2.00;;;;;;;;;;4999247;28;20258;-82
2021/05/07 11:26:05;;;;;;;3.03;2.20;;;;;;;;;;4993674;28;20249;-81
2021/05/07 11:28:40;;;;;;;3.73;2.50;;;;;;;;;;4993200;28;20204;-82
2021/05/07 11:31:06;;;;;;;3.47;2.40;;;;;;;;;;4994461;28;20223;-82
2021/05/07 11:33:34;;;;;;;3.40;2.70;;;;;;;;;;4993695;28;20213;-81
2021/05/07 11:36:03;;;;;;;4.03;2.63;;;;;;;;;;4993958;28;20216;-82
2021/05/07 11:38:30;;;;;;;3.60;2.80;;;;;;;;;;4993657;28;20200;-82
2021/05/07 11:40:57;;;;;;;4.63;3.37;;;;;;;;;;4996518;28;20248;-82
2021/05/07 11:43:26;;;;;;;4.10;2.73;;;;;;;;;;4994792;28;20228;-82
2021/05/07 11:46:02;;;;;;;3.73;2.80;;;;;;;;;;4993107;28;20666;-82
2021/05/07 11:48:29;;;;;;;4.07;3.10;;;;;;;;;;4994618;28;20232;-82
2021/05/07 11:50:57;;;;;;;3.87;2.97;;;;;;;;;;4994709;28;20324;-82
2021/05/07 11:53:23;;;;;;;2.90;2.60;;;;;;;;;;4995352;28;20217;-81
2021/05/07 11:55:50;;;;;;;3.03;2.50;;;;;;;;;;4996679;28;20228;-83
2021/05/07 11:58:17;;;;;;;3.10;2.40;;;;;;;;;;4992230;28;20271;-83
2021/05/07 12:00:44;;;;;;;3.60;2.50;;;;;;;;;;4993674;28;20299;-83
2021/05/07 12:03:14;;;;;;;3.20;2.53;;;;;;;;;;4995935;28;20219;-81
2021/05/07 12:05:41;;;;;;;3.90;3.10;;;;;;;;;;4995254;28;20236;-83
2021/05/07 12:08:09;;;;;;;3.47;2.60;;;;;;;;;;4995272;28;20609;-83
2021/05/07 12:10:36;;;;;;;3.97;2.70;;;;;;;;;;4994987;28;20556;-84
2021/05/07 12:13:04;;;;;;;2.17;1.97;;;;;;;;;;4991031;28;20295;-83
2021/05/07 12:18:32;;;;;;;4.00;2.50;;;;;;;;;;4992718;28;20212;-84
2021/05/07 12:20:59;;;;;;;4.50;2.20;;;;;;;;;;4990035;28;20229;-84
2021/05/07 12:23:28;;;;;;;2.70;2.00;;;;;;;;;;4996432;28;20216;-83
2021/05/07 12:25:54;;;;;;;2.60;1.90;;;;;;;;;;4996026;28;20242;-83
2021/05/07 12:28:22;;;;;;;3.10;1.97;;;;;;;;;;5000145;28;20232;-83
2021/05/07 12:30:49;;;;;;;2.33;1.67;;;;;;;;;;5008274;28;20224;-83
2021/05/07 12:33:18;;;;;;;2.33;1.63;;;;;;;;;;5016418;28;20199;-83
2021/05/07 12:35:45;;;;;;;2.33;1.67;;;;;;;;;;5016583;28;20247;-83
2021/05/07 12:38:27;;;;;;;2.13;1.67;;;;;;;;;;5005203;28;20225;-84
2021/05/07 12:40:55;;;;;;;3.50;1.60;;;;;;;;;;4996264;28;20294;-84
2021/05/07 12:43:22;;;;;;;2.60;1.40;;;;;;;;;;4997145;28;20220;-82
2021/05/07 12:45:49;;;;;;;4.57;1.73;;;;;;;;;;4992683;28;20985;-83
2021/05/07 12:48:16;;;;;;;2.50;2.23;;;;;;;;;;4997487;28;20208;-82
2021/05/07 12:50:43;;;;;;;4.37;1.70;;;;;;;;;;4997733;28;20236;-82
2021/05/07 12:53:10;;;;;;;1.80;1.60;;;;;;;;;;4995671;28;20208;-82
2021/05/07 12:55:38;;;;;;;2.77;1.50;;;;;;;;;;4997018;28;20200;-82
2021/05/07 12:58:05;;;;;;;2.27;1.20;;;;;;;;;;4998516;28;20284;-82
2021/05/07 13:00:32;;;;;;;3.63;1.60;;;;;;;;;;4998574;28;20228;-82
2021/05/07 13:02:59;;;;;;;3.40;1.50;;;;;;;;;;4999690;28;20559;-82
2021/05/07 13:05:26;;;;;;;8.33;3.80;;;;;;;;;;4995271;28;20273;-82
2021/05/07 13:07:53;;;;;;;2.37;1.70;;;;;;;;;;4992098;28;20217;-82
2021/05/07 13:10:20;;;;;;;2.40;1.60;;;;;;;;;;4993106;28;20287;-82
2021/05/07 13:12:47;;;;;;;2.60;1.40;;;;;;;;;;4995060;28;20714;-82
2021/05/07 13:15:15;;;;;;;3.07;1.70;;;;;;;;;;4995635;28;20204;-82
2021/05/07 13:17:42;;;;;;;2.83;1.50;;;;;;;;;;4999275;28;20200;-82
2021/05/07 13:20:09;;;;;;;3.80;1.67;;;;;;;;;;4993134;28;20699;-83
2021/05/07 13:22:36;;;;;;;4.17;1.53;;;;;;;;;;4993881;28;20522;-82
2021/05/07 13:25:03;;;;;;;4.37;1.70;;;;;;;;;;4995895;28;20637;-82
2021/05/07 13:27:30;;;;;;;2.83;1.60;;;;;;;;;;4992261;28;20659;-82
2021/05/07 13:29:57;;;;;;;3.30;1.90;;;;;;;;;;4993957;28;20254;-82
2021/05/07 13:32:24;;;;;;;2.00;1.53;;;;;;;;;;4988311;28;20268;-81
2021/05/07 13:34:53;;;;;;;2.37;1.67;;;;;;;;;;4995743;28;20307;-82
2021/05/07 13:37:20;;;;;;;3.60;1.90;;;;;;;;;;4990646;28;20853;-82
2021/05/07 13:39:47;;;;;;;4.73;1.77;;;;;;;;;;4991332;28;20208;-83
2021/05/07 13:42:14;;;;;;;2.67;2.10;;;;;;;;;;4992792;28;20247;-82
2021/05/07 13:44:41;;;;;;;3.80;1.80;;;;;;;;;;4990316;28;20212;-82
2021/05/07 13:47:08;;;;;;;2.77;1.70;;;;;;;;;;4992823;28;20232;-82
2021/05/07 13:49:35;;;;;;;4.17;1.80;;;;;;;;;;4992964;28;20209;-82
2021/05/07 13:52:02;;;;;;;2.50;2.07;;;;;;;;;;5005363;23;20245;-72
2021/05/07 13:54:29;;;;;;;6.53;1.53;;;;;;;;;;4984707;28;20357;-72
2021/05/07 13:56:56;;;;;;;2.37;1.80;;;;;;;;;;4970285;28;20640;-72
2021/05/07 13:59:23;;;;;;;3.17;1.77;;;;;;;;;;4975002;28;20304;-72
2021/05/07 14:01:50;;;;;;;3.37;2.20;;;;;;;;;;4974064;28;20221;-71
2021/05/07 14:04:17;;;;;;;5.03;1.70;;;;;;;;;;4972111;28;20233;-72
2021/05/07 14:06:45;;;;;;;2.50;1.97;;;;;;;;;;4971740;28;20221;-72
2021/05/07 14:09:12;;;;;;;7.30;2.63;;;;;;;;;;4970786;28;20654;-71
2021/05/07 14:11:39;;;;;;;4.20;2.80;;;;;;;;;;4971431;28;20216;-72
2021/05/07 14:14:09;;;;;;;5.47;2.70;;;;;;;;;;4974669;28;20612;-72
2021/05/07 14:16:36;;;;;;;4.53;2.40;;;;;;;;;;4971780;28;21019;-73
2021/05/07 14:19:03;;;;;;;12.60;3.50;;;;;;;;;;4973124;28;20331;-72
2021/05/07 14:21:29;;;;;;;3.80;2.50;;;;;;;;;;4973477;28;20645;-71